Aviation Digital Data Service (ADDS)

Output produced by METARs form (0421 UTC 26 April 2019)
found at http://www.aviationweather.gov/metar/data/
 
METAR text: DBBB 260400Z 23012KT 9999 SCT011 29/26 Q1010 NOSIG
Conditions at: DBBB (COTONOU/CADJEHOU, BJ) observed 0400 UTC 26 April 2019
Temperature: 29.0°C (84°F)
Dewpoint: 26.0°C (79°F) [RH = 84%]
Pressure (altimeter): 29.82 inches Hg (1010.0 mb)
Winds: from the SW (230 degrees) at 14 MPH (12 knots; 6.2 m/s)
Visibility: 6 or more miles (10+ km)
Ceiling: at least 12,000 feet AGL
Clouds: scattered clouds at 1100 feet AGL
Weather: no significant weather observed at this time

METAR text: DBBB 260300Z 23010KT 9999 SCT011 29/27 Q1010 NOSIG
Conditions at: DBBB (COTONOU/CADJEHOU, BJ) observed 0300 UTC 26 April 2019
Temperature: 29.0°C (84°F)
Dewpoint: 27.0°C (81°F) [RH = 89%]
Pressure (altimeter): 29.82 inches Hg (1010.0 mb)
Winds: from the SW (230 degrees) at 12 MPH (10 knots; 5.1 m/s)
Visibility: 6 or more miles (10+ km)
Ceiling: at least 12,000 feet AGL
Clouds: scattered clouds at 1100 feet AGL
Weather: no significant weather observed at this time

METAR text: DBBB 260100Z 22010KT 9999 SCT011 29/26 Q1010 NOSIG
Conditions at: DBBB (COTONOU/CADJEHOU, BJ) observed 0100 UTC 26 April 2019
Temperature: 29.0°C (84°F)
Dewpoint: 26.0°C (79°F) [RH = 84%]
Pressure (altimeter): 29.82 inches Hg (1010.0 mb)
Winds: from the SW (220 degrees) at 12 MPH (10 knots; 5.1 m/s)
Visibility: 6 or more miles (10+ km)
Ceiling: at least 12,000 feet AGL
Clouds: scattered clouds at 1100 feet AGL
Weather: no significant weather observed at this time

METAR text: DBBB 260000Z 21009KT 9999 SCT011 30/27 Q1010 NOSIG
Conditions at: DBBB (COTONOU/CADJEHOU, BJ) observed 0000 UTC 26 April 2019
Temperature: 30.0°C (86°F)
Dewpoint: 27.0°C (81°F) [RH = 84%]
Pressure (altimeter): 29.82 inches Hg (1010.0 mb)
Winds: from the SSW (210 degrees) at 10 MPH (9 knots; 4.6 m/s)
Visibility: 6 or more miles (10+ km)
Ceiling: at least 12,000 feet AGL
Clouds: scattered clouds at 1100 feet AGL
Weather: no significant weather observed at this time

METAR text: DBBB 252300Z 24009KT 9999 SCT011 29/27 Q1011 NOSIG
Conditions at: DBBB (COTONOU/CADJEHOU, BJ) observed 2300 UTC 25 April 2019
Temperature: 29.0°C (84°F)
Dewpoint: 27.0°C (81°F) [RH = 89%]
Pressure (altimeter): 29.85 inches Hg (1011.0 mb)
Winds: from the WSW (240 degrees) at 10 MPH (9 knots; 4.6 m/s)
Visibility: 6 or more miles (10+ km)
Ceiling: at least 12,000 feet AGL
Clouds: scattered clouds at 1100 feet AGL
Weather: no significant weather observed at this time

METAR text: DBBB 252100Z 23009KT 9999 FEW011 29/26 Q1011 NOSIG
Conditions at: DBBB (COTONOU/CADJEHOU, BJ) observed 2100 UTC 25 April 2019
Temperature: 29.0°C (84°F)
Dewpoint: 26.0°C (79°F) [RH = 84%]
Pressure (altimeter): 29.85 inches Hg (1011.0 mb)
Winds: from the SW (230 degrees) at 10 MPH (9 knots; 4.6 m/s)
Visibility: 6 or more miles (10+ km)
Ceiling: at least 12,000 feet AGL
Clouds: few clouds at 1100 feet AGL
Weather: no significant weather observed at this time

METAR text: DBBB 252000Z 22009KT 9999 FEW011 29/26 Q1011 NOSIG
Conditions at: DBBB (COTONOU/CADJEHOU, BJ) observed 2000 UTC 25 April 2019
Temperature: 29.0°C (84°F)
Dewpoint: 26.0°C (79°F) [RH = 84%]
Pressure (altimeter): 29.85 inches Hg (1011.0 mb)
Winds: from the SW (220 degrees) at 10 MPH (9 knots; 4.6 m/s)
Visibility: 6 or more miles (10+ km)
Ceiling: at least 12,000 feet AGL
Clouds: few clouds at 1100 feet AGL
Weather: no significant weather observed at this time

METAR text: DBBB 251900Z 23009KT 9999 FEW012 29/26 Q1010 NOSIG
Conditions at: DBBB (COTONOU/CADJEHOU, BJ) observed 1900 UTC 25 April 2019
Temperature: 29.0°C (84°F)
Dewpoint: 26.0°C (79°F) [RH = 84%]
Pressure (altimeter): 29.82 inches Hg (1010.0 mb)
Winds: from the SW (230 degrees) at 10 MPH (9 knots; 4.6 m/s)
Visibility: 6 or more miles (10+ km)
Ceiling: at least 12,000 feet AGL
Clouds: few clouds at 1200 feet AGL
Weather: no significant weather observed at this time

METAR text: DBBB 251800Z 23011KT 9999 FEW012 30/26 Q1009 NOSIG
Conditions at: DBBB (COTONOU/CADJEHOU, BJ) observed 1800 UTC 25 April 2019
Temperature: 30.0°C (86°F)
Dewpoint: 26.0°C (79°F) [RH = 79%]
Pressure (altimeter): 29.79 inches Hg (1009.0 mb)
Winds: from the SW (230 degrees) at 13 MPH (11 knots; 5.7 m/s)
Visibility: 6 or more miles (10+ km)
Ceiling: at least 12,000 feet AGL
Clouds: few clouds at 1200 feet AGL
Weather: no significant weather observed at this time

METAR text: DBBB 251700Z 22011KT 9999 SCT014 FEW023CB 31/26 Q1009 TEMPO TS
Conditions at: DBBB (COTONOU/CADJEHOU, BJ) observed 1700 UTC 25 April 2019
Temperature: 31.0°C (88°F)
Dewpoint: 26.0°C (79°F) [RH = 75%]
Pressure (altimeter): 29.79 inches Hg (1009.0 mb)
Winds: from the SW (220 degrees) at 13 MPH (11 knots; 5.7 m/s)
Visibility: 6 or more miles (10+ km)
Ceiling: at least 12,000 feet AGL
Clouds: scattered clouds at 1400 feet AGL
few clouds at 2300 feet AGL
Weather: no significant weather observed at this time

METAR text: DBBB 251200Z 22009KT 190V260 9999 SCT014 32/26 Q1011 NOSIG
Conditions at: DBBB (COTONOU/CADJEHOU, BJ) observed 1200 UTC 25 April 2019
Temperature: 32.0°C (90°F)
Dewpoint: 26.0°C (79°F) [RH = 71%]
Pressure (altimeter): 29.85 inches Hg (1011.0 mb)
Winds: from the SW (220 degrees) at 10 MPH (9 knots; 4.6 m/s)
Visibility: 6 or more miles (10+ km)
Ceiling: at least 12,000 feet AGL
Clouds: scattered clouds at 1400 feet AGL
Weather: no significant weather observed at this time

METAR text: DBBB 251000Z 22007KT 180V280 9999 SCT012 31/27 Q1013 NOSIG
Conditions at: DBBB (COTONOU/CADJEHOU, BJ) observed 1000 UTC 25 April 2019
Temperature: 31.0°C (88°F)
Dewpoint: 27.0°C (81°F) [RH = 79%]
Pressure (altimeter): 29.91 inches Hg (1013.0 mb)
Winds: from the SW (220 degrees) at 8 MPH (7 knots; 3.6 m/s)
Visibility: 6 or more miles (10+ km)
Ceiling: at least 12,000 feet AGL
Clouds: scattered clouds at 1200 feet AGL
Weather: no significant weather observed at this time

METAR text: DBBB 250900Z 23007KT 190V260 9999 SCT012 31/27 Q1013 NOSIG
Conditions at: DBBB (COTONOU/CADJEHOU, BJ) observed 0900 UTC 25 April 2019
Temperature: 31.0°C (88°F)
Dewpoint: 27.0°C (81°F) [RH = 79%]
Pressure (altimeter): 29.91 inches Hg (1013.0 mb)
Winds: from the SW (230 degrees) at 8 MPH (7 knots; 3.6 m/s)
Visibility: 6 or more miles (10+ km)
Ceiling: at least 12,000 feet AGL
Clouds: scattered clouds at 1200 feet AGL
Weather: no significant weather observed at this time

METAR text: DBBB 250800Z 26005KT 220V310 8000 FEW011 30/27 Q1012 NOSIG
Conditions at: DBBB (COTONOU/CADJEHOU, BJ) observed 0800 UTC 25 April 2019
Temperature: 30.0°C (86°F)
Dewpoint: 27.0°C (81°F) [RH = 84%]
Pressure (altimeter): 29.88 inches Hg (1012.0 mb)
Winds: from the W (260 degrees) at 6 MPH (5 knots; 2.6 m/s)
Visibility: 5 miles ( 8 km)
Ceiling: at least 12,000 feet AGL
Clouds: few clouds at 1100 feet AGL
Weather: no significant weather observed at this time

METAR text: DBBB 250700Z 29005KT 250V310 8000 FEW011 28/26 Q1012 NOSIG
Conditions at: DBBB (COTONOU/CADJEHOU, BJ) observed 0700 UTC 25 April 2019
Temperature: 28.0°C (82°F)
Dewpoint: 26.0°C (79°F) [RH = 89%]
Pressure (altimeter): 29.88 inches Hg (1012.0 mb)
Winds: from the WNW (290 degrees) at 6 MPH (5 knots; 2.6 m/s)
Visibility: 5 miles ( 8 km)
Ceiling: at least 12,000 feet AGL
Clouds: few clouds at 1100 feet AGL
Weather: no significant weather observed at this time

METAR text: DBBB 250600Z 30003KT 9999 FEW011 27/26 Q1012 NOSIG
Conditions at: DBBB (COTONOU/CADJEHOU, BJ) observed 0600 UTC 25 April 2019
Temperature: 27.0°C (81°F)
Dewpoint: 26.0°C (79°F) [RH = 94%]
Pressure (altimeter): 29.88 inches Hg (1012.0 mb)
Winds: from the WNW (300 degrees) at 3 MPH (3 knots; 1.5 m/s)
Visibility: 6 or more miles (10+ km)
Ceiling: at least 12,000 feet AGL
Clouds: few clouds at 1100 feet AGL
Weather: no significant weather observed at this time

METAR text: DBBB 250530Z 30003KT 9999 FEW011 27/26 Q1012 NOSIG
Conditions at: DBBB (COTONOU/CADJEHOU, BJ) observed 0530 UTC 25 April 2019
Temperature: 27.0°C (81°F)
Dewpoint: 26.0°C (79°F) [RH = 94%]
Pressure (altimeter): 29.88 inches Hg (1012.0 mb)
Winds: from the WNW (300 degrees) at 3 MPH (3 knots; 1.5 m/s)
Visibility: 6 or more miles (10+ km)
Ceiling: at least 12,000 feet AGL
Clouds: few clouds at 1100 feet AGL
Weather: no significant weather observed at this time

METAR text: DBBB 250500Z 30003KT 270V330 9999 FEW011 28/26 Q1012 NOSIG
Conditions at: DBBB (COTONOU/CADJEHOU, BJ) observed 0500 UTC 25 April 2019
Temperature: 28.0°C (82°F)
Dewpoint: 26.0°C (79°F) [RH = 89%]
Pressure (altimeter): 29.88 inches Hg (1012.0 mb)
Winds: from the WNW (300 degrees) at 3 MPH (3 knots; 1.5 m/s)
Visibility: 6 or more miles (10+ km)
Ceiling: at least 12,000 feet AGL
Clouds: few clouds at 1100 feet AGL
Weather: no significant weather observed at this time

METAR text: DBBB 250430Z 31003KT 270V330 9999 SCT012 28/26 Q1011 NOSIG
Conditions at: DBBB (COTONOU/CADJEHOU, BJ) observed 0430 UTC 25 April 2019
Temperature: 28.0°C (82°F)
Dewpoint: 26.0°C (79°F) [RH = 89%]
Pressure (altimeter): 29.85 inches Hg (1011.0 mb)
Winds: from the NW (310 degrees) at 3 MPH (3 knots; 1.5 m/s)
Visibility: 6 or more miles (10+ km)
Ceiling: at least 12,000 feet AGL
Clouds: scattered clouds at 1200 feet AGL
Weather: no significant weather observed at this time

METAR text: DBBB 250300Z 25006KT 9999 FEW011 29/26 Q1011 NOSIG
Conditions at: DBBB (COTONOU/CADJEHOU, BJ) observed 0300 UTC 25 April 2019
Temperature: 29.0°C (84°F)
Dewpoint: 26.0°C (79°F) [RH = 84%]
Pressure (altimeter): 29.85 inches Hg (1011.0 mb)
Winds: from the WSW (250 degrees) at 7 MPH (6 knots; 3.1 m/s)
Visibility: 6 or more miles (10+ km)
Ceiling: at least 12,000 feet AGL
Clouds: few clouds at 1100 feet AGL
Weather: no significant weather observed at this time

METAR text: DBBB 250100Z 24008KT 9999 FEW011 29/26 Q1011 NOSIG
Conditions at: DBBB (COTONOU/CADJEHOU, BJ) observed 0100 UTC 25 April 2019
Temperature: 29.0°C (84°F)
Dewpoint: 26.0°C (79°F) [RH = 84%]
Pressure (altimeter): 29.85 inches Hg (1011.0 mb)
Winds: from the WSW (240 degrees) at 9 MPH (8 knots; 4.1 m/s)
Visibility: 6 or more miles (10+ km)
Ceiling: at least 12,000 feet AGL
Clouds: few clouds at 1100 feet AGL
Weather: no significant weather observed at this time

METAR text: DBBB 242200Z 23009KT 9999 FEW011 29/26 Q1012 NOSIG
Conditions at: DBBB (COTONOU/CADJEHOU, BJ) observed 2200 UTC 24 April 2019
Temperature: 29.0°C (84°F)
Dewpoint: 26.0°C (79°F) [RH = 84%]
Pressure (altimeter): 29.88 inches Hg (1012.0 mb)
Winds: from the SW (230 degrees) at 10 MPH (9 knots; 4.6 m/s)
Visibility: 6 or more miles (10+ km)
Ceiling: at least 12,000 feet AGL
Clouds: few clouds at 1100 feet AGL
Weather: no significant weather observed at this time

Forecast for: DBBB (COTONOU/CADJEHOU, BJ)
Text: TAF DBBB 251700Z 2518/2624 22010KT 9999 SCT013
Forecast period: 1800 UTC 25 April 2019 to 0000 UTC 27 April 2019
Forecast type: FROM: standard forecast or significant change
Winds: from the SW (220 degrees) at 12 MPH (10 knots; 5.1 m/s)
Visibility: 6 or more miles 10+ km)
Ceiling: at least 12,000 feet AGL
Clouds: scattered clouds at 1300 feet AGL
Weather: no significant weather forecast for this period
Text: TEMPO 2518/2524 TS BKN012 FEW023CB
Forecast period: 1800 UTC 25 April 2019 to 0000 UTC 26 April 2019
Forecast type: TEMPORARY: The following changes expected for less than half the time period
Visibility: missing
Ceiling: 1200 feet AGL
Clouds: broken clouds at 1200 feet AGL
few clouds at 2300 feet AGL
Weather: TS  (thunderstorm)
Text: PROB30 4000 TSRA
Forecast period: 1800 UTC 25 April 2019 to 0000 UTC 27 April 2019
Forecast type: PROBABLE: 30 percent likelihood of the following during this time
Visibility: 2.49 miles (4.01 km)
Ceiling: unknown
Clouds: missing
Weather: TSRA  (rain associated with thunderstorm(s))